sensor_id;sensor_type;location;lat;lon;timestamp;P1;durP1;ratioP1;P2;durP2;ratioP2
20084;SDS011;10202;48.474;9.138;2023-06-10T00:00:04;8.60;;;5.97;;
20084;SDS011;10202;48.474;9.138;2023-06-10T00:02:38;7.53;;;6.45;;
20084;SDS011;10202;48.474;9.138;2023-06-10T00:05:04;8.57;;;5.85;;
20084;SDS011;10202;48.474;9.138;2023-06-10T00:07:31;11.57;;;6.65;;
20084;SDS011;10202;48.474;9.138;2023-06-10T00:09:59;12.48;;;6.68;;
20084;SDS011;10202;48.474;9.138;2023-06-10T00:12:30;8.23;;;6.60;;
20084;SDS011;10202;48.474;9.138;2023-06-10T00:14:56;11.10;;;6.45;;
20084;SDS011;10202;48.474;9.138;2023-06-10T00:17:21;7.95;;;6.43;;
20084;SDS011;10202;48.474;9.138;2023-06-10T00:19:48;9.77;;;5.85;;
20084;SDS011;10202;48.474;9.138;2023-06-10T00:22:20;7.38;;;6.25;;
20084;SDS011;10202;48.474;9.138;2023-06-10T00:24:59;8.05;;;6.55;;
20084;SDS011;10202;48.474;9.138;2023-06-10T00:27:32;10.07;;;6.07;;
20084;SDS011;10202;48.474;9.138;2023-06-10T00:30:03;8.55;;;5.80;;
20084;SDS011;10202;48.474;9.138;2023-06-10T00:32:35;6.90;;;6.20;;
20084;SDS011;10202;48.474;9.138;2023-06-10T00:35:05;7.85;;;6.82;;
20084;SDS011;10202;48.474;9.138;2023-06-10T00:37:36;8.27;;;6.45;;
20084;SDS011;10202;48.474;9.138;2023-06-10T00:40:04;7.00;;;5.95;;
20084;SDS011;10202;48.474;9.138;2023-06-10T00:42:34;7.75;;;6.38;;
20084;SDS011;10202;48.474;9.138;2023-06-10T00:44:59;10.07;;;6.20;;
20084;SDS011;10202;48.474;9.138;2023-06-10T00:47:25;11.02;;;6.72;;
20084;SDS011;10202;48.474;9.138;2023-06-10T00:49:56;9.30;;;6.55;;
20084;SDS011;10202;48.474;9.138;2023-06-10T00:52:23;7.03;;;6.05;;
20084;SDS011;10202;48.474;9.138;2023-06-10T00:54:56;8.57;;;6.13;;
20084;SDS011;10202;48.474;9.138;2023-06-10T00:57:22;7.45;;;6.68;;
20084;SDS011;10202;48.474;9.138;2023-06-10T00:59:48;8.88;;;7.18;;
20084;SDS011;10202;48.474;9.138;2023-06-10T01:02:19;8.68;;;7.25;;
20084;SDS011;10202;48.474;9.138;2023-06-10T01:04:44;13.63;;;7.60;;
20084;SDS011;10202;48.474;9.138;2023-06-10T01:07:28;9.70;;;7.38;;
20084;SDS011;10202;48.474;9.138;2023-06-10T01:10:04;10.95;;;7.10;;
20084;SDS011;10202;48.474;9.138;2023-06-10T01:15:37;14.93;;;7.70;;
20084;SDS011;10202;48.474;9.138;2023-06-10T01:18:08;11.02;;;7.40;;
20084;SDS011;10202;48.474;9.138;2023-06-10T01:20:43;10.60;;;7.18;;
20084;SDS011;10202;48.474;9.138;2023-06-10T01:23:11;12.50;;;6.95;;
20084;SDS011;10202;48.474;9.138;2023-06-10T01:26:02;7.75;;;6.50;;
20084;SDS011;10202;48.474;9.138;2023-06-10T01:31:40;9.32;;;7.10;;
20084;SDS011;10202;48.474;9.138;2023-06-10T01:34:27;13.18;;;7.18;;
20084;SDS011;10202;48.474;9.138;2023-06-10T01:36:54;7.53;;;6.72;;
20084;SDS011;10202;48.474;9.138;2023-06-10T01:39:25;8.48;;;6.93;;
20084;SDS011;10202;48.474;9.138;2023-06-10T01:41:54;7.78;;;6.95;;
20084;SDS011;10202;48.474;9.138;2023-06-10T01:44:24;12.23;;;7.90;;
20084;SDS011;10202;48.474;9.138;2023-06-10T01:46:50;12.45;;;7.20;;
20084;SDS011;10202;48.474;9.138;2023-06-10T01:49:18;8.85;;;7.30;;
20084;SDS011;10202;48.474;9.138;2023-06-10T01:51:47;9.15;;;7.07;;
20084;SDS011;10202;48.474;9.138;2023-06-10T01:54:12;11.73;;;7.50;;
20084;SDS011;10202;48.474;9.138;2023-06-10T01:56:45;12.23;;;7.28;;
20084;SDS011;10202;48.474;9.138;2023-06-10T01:59:13;9.07;;;7.57;;
20084;SDS011;10202;48.474;9.138;2023-06-10T02:01:46;11.48;;;7.90;;
20084;SDS011;10202;48.474;9.138;2023-06-10T02:04:14;12.10;;;7.72;;
20084;SDS011;10202;48.474;9.138;2023-06-10T02:06:41;13.82;;;7.20;;
20084;SDS011;10202;48.474;9.138;2023-06-10T02:09:07;9.65;;;7.78;;
20084;SDS011;10202;48.474;9.138;2023-06-10T02:11:35;10.50;;;7.20;;
20084;SDS011;10202;48.474;9.138;2023-06-10T02:14:01;9.88;;;7.70;;
20084;SDS011;10202;48.474;9.138;2023-06-10T02:16:31;9.73;;;7.85;;
20084;SDS011;10202;48.474;9.138;2023-06-10T02:19:01;9.73;;;7.68;;
20084;SDS011;10202;48.474;9.138;2023-06-10T02:21:27;10.02;;;7.55;;
20084;SDS011;10202;48.474;9.138;2023-06-10T02:23:53;13.35;;;7.15;;
20084;SDS011;10202;48.474;9.138;2023-06-10T02:26:18;9.82;;;7.43;;
20084;SDS011;10202;48.474;9.138;2023-06-10T02:28:45;9.32;;;7.50;;
20084;SDS011;10202;48.474;9.138;2023-06-10T02:31:12;10.88;;;7.70;;
20084;SDS011;10202;48.474;9.138;2023-06-10T02:33:38;9.93;;;7.43;;
20084;SDS011;10202;48.474;9.138;2023-06-10T02:36:06;9.90;;;7.13;;
20084;SDS011;10202;48.474;9.138;2023-06-10T02:38:31;9.77;;;7.38;;
20084;SDS011;10202;48.474;9.138;2023-06-10T02:40:59;9.15;;;7.40;;
20084;SDS011;10202;48.474;9.138;2023-06-10T02:43:24;8.68;;;7.03;;
20084;SDS011;10202;48.474;9.138;2023-06-10T02:45:53;10.65;;;7.57;;
20084;SDS011;10202;48.474;9.138;2023-06-10T02:48:26;10.85;;;7.55;;
20084;SDS011;10202;48.474;9.138;2023-06-10T02:50:58;9.32;;;7.53;;
20084;SDS011;10202;48.474;9.138;2023-06-10T02:53:35;10.55;;;7.43;;
20084;SDS011;10202;48.474;9.138;2023-06-10T02:56:08;10.75;;;7.82;;
20084;SDS011;10202;48.474;9.138;2023-06-10T02:58:40;10.95;;;7.72;;
20084;SDS011;10202;48.474;9.138;2023-06-10T03:01:11;9.80;;;7.68;;
20084;SDS011;10202;48.474;9.138;2023-06-10T03:03:52;14.07;;;7.90;;
20084;SDS011;10202;48.474;9.138;2023-06-10T03:06:18;13.43;;;7.93;;
20084;SDS011;10202;48.474;9.138;2023-06-10T03:08:43;9.85;;;7.55;;
20084;SDS011;10202;48.474;9.138;2023-06-10T03:11:13;9.25;;;7.85;;
20084;SDS011;10202;48.474;9.138;2023-06-10T03:13:39;12.02;;;7.90;;
20084;SDS011;10202;48.474;9.138;2023-06-10T03:16:08;10.18;;;7.75;;
20084;SDS011;10202;48.474;9.138;2023-06-10T03:18:40;10.95;;;8.07;;
20084;SDS011;10202;48.474;9.138;2023-06-10T03:21:10;10.25;;;7.93;;
20084;SDS011;10202;48.474;9.138;2023-06-10T03:23:40;9.32;;;7.85;;
20084;SDS011;10202;48.474;9.138;2023-06-10T03:26:05;8.88;;;7.97;;
20084;SDS011;10202;48.474;9.138;2023-06-10T03:28:37;11.65;;;8.20;;
20084;SDS011;10202;48.474;9.138;2023-06-10T03:31:08;10.23;;;7.32;;
20084;SDS011;10202;48.474;9.138;2023-06-10T03:33:37;9.20;;;7.50;;
20084;SDS011;10202;48.474;9.138;2023-06-10T03:36:08;10.43;;;7.47;;
20084;SDS011;10202;48.474;9.138;2023-06-10T03:38:34;10.15;;;7.95;;
20084;SDS011;10202;48.474;9.138;2023-06-10T03:41:05;9.73;;;7.60;;
20084;SDS011;10202;48.474;9.138;2023-06-10T03:43:30;9.95;;;7.68;;
20084;SDS011;10202;48.474;9.138;2023-06-10T03:46:01;10.60;;;7.68;;
20084;SDS011;10202;48.474;9.138;2023-06-10T03:48:31;10.57;;;8.40;;
20084;SDS011;10202;48.474;9.138;2023-06-10T03:50:58;13.90;;;8.05;;
20084;SDS011;10202;48.474;9.138;2023-06-10T03:53:25;10.65;;;8.05;;
20084;SDS011;10202;48.474;9.138;2023-06-10T03:55:51;11.07;;;8.20;;
20084;SDS011;10202;48.474;9.138;2023-06-10T03:58:20;10.32;;;7.78;;
20084;SDS011;10202;48.474;9.138;2023-06-10T04:00:48;11.90;;;8.43;;
20084;SDS011;10202;48.474;9.138;2023-06-10T04:03:14;10.88;;;8.10;;
20084;SDS011;10202;48.474;9.138;2023-06-10T04:05:46;10.20;;;8.18;;
20084;SDS011;10202;48.474;9.138;2023-06-10T04:08:15;11.15;;;8.20;;
20084;SDS011;10202;48.474;9.138;2023-06-10T04:10:43;9.25;;;7.75;;
20084;SDS011;10202;48.474;9.138;2023-06-10T04:13:09;8.77;;;7.63;;
20084;SDS011;10202;48.474;9.138;2023-06-10T04:15:40;9.15;;;7.72;;
20084;SDS011;10202;48.474;9.138;2023-06-10T04:18:09;9.13;;;7.72;;
20084;SDS011;10202;48.474;9.138;2023-06-10T04:20:37;8.30;;;7.40;;
20084;SDS011;10202;48.474;9.138;2023-06-10T04:23:03;9.68;;;7.93;;
20084;SDS011;10202;48.474;9.138;2023-06-10T04:25:31;9.00;;;7.70;;
20084;SDS011;10202;48.474;9.138;2023-06-10T04:27:59;9.18;;;7.57;;
20084;SDS011;10202;48.474;9.138;2023-06-10T04:30:29;11.00;;;7.88;;
20084;SDS011;10202;48.474;9.138;2023-06-10T04:32:59;10.23;;;7.53;;
20084;SDS011;10202;48.474;9.138;2023-06-10T04:35:26;8.95;;;7.50;;
20084;SDS011;10202;48.474;9.138;2023-06-10T04:37:58;12.65;;;8.55;;
20084;SDS011;10202;48.474;9.138;2023-06-10T04:40:23;8.48;;;7.63;;
20084;SDS011;10202;48.474;9.138;2023-06-10T04:42:52;11.35;;;8.07;;
20084;SDS011;10202;48.474;9.138;2023-06-10T04:45:20;11.35;;;8.57;;
20084;SDS011;10202;48.474;9.138;2023-06-10T04:47:48;12.13;;;8.45;;
20084;SDS011;10202;48.474;9.138;2023-06-10T04:50:16;11.40;;;8.68;;
20084;SDS011;10202;48.474;9.138;2023-06-10T04:52:44;11.10;;;7.93;;
20084;SDS011;10202;48.474;9.138;2023-06-10T04:55:11;11.40;;;7.78;;
20084;SDS011;10202;48.474;9.138;2023-06-10T04:57:37;12.55;;;8.13;;
20084;SDS011;10202;48.474;9.138;2023-06-10T05:00:05;10.50;;;8.23;;
20084;SDS011;10202;48.474;9.138;2023-06-10T05:02:32;8.80;;;7.90;;
20084;SDS011;10202;48.474;9.138;2023-06-10T05:05:02;10.60;;;8.18;;
20084;SDS011;10202;48.474;9.138;2023-06-10T05:07:33;11.95;;;8.95;;
20084;SDS011;10202;48.474;9.138;2023-06-10T05:09:59;9.80;;;8.35;;
20084;SDS011;10202;48.474;9.138;2023-06-10T05:12:28;10.10;;;8.13;;
20084;SDS011;10202;48.474;9.138;2023-06-10T05:14:56;9.35;;;8.05;;
20084;SDS011;10202;48.474;9.138;2023-06-10T05:17:21;10.52;;;8.52;;
20084;SDS011;10202;48.474;9.138;2023-06-10T05:19:48;9.68;;;8.30;;
20084;SDS011;10202;48.474;9.138;2023-06-10T05:22:13;9.90;;;8.68;;
20084;SDS011;10202;48.474;9.138;2023-06-10T05:24:44;15.65;;;8.23;;
20084;SDS011;10202;48.474;9.138;2023-06-10T05:27:10;11.85;;;8.75;;
20084;SDS011;10202;48.474;9.138;2023-06-10T05:29:37;9.60;;;8.13;;
20084;SDS011;10202;48.474;9.138;2023-06-10T05:32:08;11.48;;;8.73;;
20084;SDS011;10202;48.474;9.138;2023-06-10T05:34:33;8.45;;;7.57;;
20084;SDS011;10202;48.474;9.138;2023-06-10T05:37:01;11.52;;;8.68;;
20084;SDS011;10202;48.474;9.138;2023-06-10T05:39:30;13.90;;;9.07;;
20084;SDS011;10202;48.474;9.138;2023-06-10T05:41:56;10.68;;;8.63;;
20084;SDS011;10202;48.474;9.138;2023-06-10T05:44:24;9.77;;;8.27;;
20084;SDS011;10202;48.474;9.138;2023-06-10T05:46:52;11.07;;;8.63;;
20084;SDS011;10202;48.474;9.138;2023-06-10T05:49:17;12.77;;;8.32;;
20084;SDS011;10202;48.474;9.138;2023-06-10T05:51:45;13.45;;;8.82;;
20084;SDS011;10202;48.474;9.138;2023-06-10T05:54:15;15.40;;;8.75;;
20084;SDS011;10202;48.474;9.138;2023-06-10T05:56:46;12.20;;;9.05;;
20084;SDS011;10202;48.474;9.138;2023-06-10T05:59:12;15.48;;;8.95;;
20084;SDS011;10202;48.474;9.138;2023-06-10T06:01:37;14.88;;;8.95;;
20084;SDS011;10202;48.474;9.138;2023-06-10T06:04:08;12.05;;;8.98;;
20084;SDS011;10202;48.474;9.138;2023-06-10T06:06:39;11.45;;;8.70;;
20084;SDS011;10202;48.474;9.138;2023-06-10T06:09:05;11.35;;;7.72;;
20084;SDS011;10202;48.474;9.138;2023-06-10T06:11:35;9.07;;;7.85;;
20084;SDS011;10202;48.474;9.138;2023-06-10T06:14:03;9.93;;;8.23;;
20084;SDS011;10202;48.474;9.138;2023-06-10T06:16:29;10.85;;;8.63;;
20084;SDS011;10202;48.474;9.138;2023-06-10T06:18:57;9.63;;;8.25;;
20084;SDS011;10202;48.474;9.138;2023-06-10T06:21:24;12.55;;;7.85;;
20084;SDS011;10202;48.474;9.138;2023-06-10T06:23:50;11.93;;;7.90;;
20084;SDS011;10202;48.474;9.138;2023-06-10T06:26:19;8.68;;;7.43;;
20084;SDS011;10202;48.474;9.138;2023-06-10T06:28:49;9.43;;;7.57;;
20084;SDS011;10202;48.474;9.138;2023-06-10T06:31:17;9.95;;;7.40;;
20084;SDS011;10202;48.474;9.138;2023-06-10T06:33:45;10.40;;;7.50;;
20084;SDS011;10202;48.474;9.138;2023-06-10T06:36:13;11.70;;;7.65;;
20084;SDS011;10202;48.474;9.138;2023-06-10T06:38:41;9.90;;;8.15;;
20084;SDS011;10202;48.474;9.138;2023-06-10T06:41:07;7.93;;;7.13;;
20084;SDS011;10202;48.474;9.138;2023-06-10T06:43:34;9.63;;;7.57;;
20084;SDS011;10202;48.474;9.138;2023-06-10T06:46:23;9.13;;;7.80;;
20084;SDS011;10202;48.474;9.138;2023-06-10T06:48:49;8.68;;;7.78;;
20084;SDS011;10202;48.474;9.138;2023-06-10T06:51:17;8.50;;;7.45;;
20084;SDS011;10202;48.474;9.138;2023-06-10T06:53:42;9.93;;;7.57;;
20084;SDS011;10202;48.474;9.138;2023-06-10T06:56:11;10.05;;;7.60;;
20084;SDS011;10202;48.474;9.138;2023-06-10T06:58:41;11.50;;;6.97;;
20084;SDS011;10202;48.474;9.138;2023-06-10T07:01:09;8.45;;;7.18;;
20084;SDS011;10202;48.474;9.138;2023-06-10T07:03:37;9.35;;;7.32;;
20084;SDS011;10202;48.474;9.138;2023-06-10T07:06:02;10.60;;;7.50;;
20084;SDS011;10202;48.474;9.138;2023-06-10T07:08:28;8.15;;;7.10;;
20084;SDS011;10202;48.474;9.138;2023-06-10T07:10:56;9.73;;;7.68;;
20084;SDS011;10202;48.474;9.138;2023-06-10T07:13:21;9.88;;;7.85;;
20084;SDS011;10202;48.474;9.138;2023-06-10T07:15:52;10.43;;;7.32;;
20084;SDS011;10202;48.474;9.138;2023-06-10T07:18:18;7.45;;;6.60;;
20084;SDS011;10202;48.474;9.138;2023-06-10T07:20:48;8.73;;;7.35;;
20084;SDS011;10202;48.474;9.138;2023-06-10T07:23:16;8.50;;;7.35;;
20084;SDS011;10202;48.474;9.138;2023-06-10T07:25:42;8.63;;;7.00;;
20084;SDS011;10202;48.474;9.138;2023-06-10T07:28:10;7.22;;;6.50;;
20084;SDS011;10202;48.474;9.138;2023-06-10T07:30:37;6.65;;;5.95;;
20084;SDS011;10202;48.474;9.138;2023-06-10T07:33:05;8.90;;;7.05;;
20084;SDS011;10202;48.474;9.138;2023-06-10T07:35:35;8.38;;;7.20;;
20084;SDS011;10202;48.474;9.138;2023-06-10T07:38:06;7.93;;;7.13;;
20084;SDS011;10202;48.474;9.138;2023-06-10T07:40:34;8.65;;;6.28;;
20084;SDS011;10202;48.474;9.138;2023-06-10T07:43:00;8.60;;;7.22;;
20084;SDS011;10202;48.474;9.138;2023-06-10T07:45:27;9.25;;;6.68;;
20084;SDS011;10202;48.474;9.138;2023-06-10T07:47:53;9.68;;;6.70;;
20084;SDS011;10202;48.474;9.138;2023-06-10T07:50:26;8.32;;;6.80;;
20084;SDS011;10202;48.474;9.138;2023-06-10T07:52:56;8.20;;;6.85;;
20084;SDS011;10202;48.474;9.138;2023-06-10T07:55:27;10.48;;;6.47;;
20084;SDS011;10202;48.474;9.138;2023-06-10T07:57:57;8.13;;;6.82;;
20084;SDS011;10202;48.474;9.138;2023-06-10T08:00:27;9.88;;;6.65;;
20084;SDS011;10202;48.474;9.138;2023-06-10T08:02:53;9.15;;;6.95;;
20084;SDS011;10202;48.474;9.138;2023-06-10T08:05:21;7.15;;;6.38;;
20084;SDS011;10202;48.474;9.138;2023-06-10T08:07:46;8.30;;;7.13;;
20084;SDS011;10202;48.474;9.138;2023-06-10T08:10:12;10.43;;;7.00;;
20084;SDS011;10202;48.474;9.138;2023-06-10T08:12:37;10.63;;;7.20;;
20084;SDS011;10202;48.474;9.138;2023-06-10T08:15:03;9.55;;;6.93;;
20084;SDS011;10202;48.474;9.138;2023-06-10T08:17:32;8.20;;;7.00;;
20084;SDS011;10202;48.474;9.138;2023-06-10T08:19:57;10.60;;;6.35;;
20084;SDS011;10202;48.474;9.138;2023-06-10T08:22:23;7.60;;;6.80;;
20084;SDS011;10202;48.474;9.138;2023-06-10T08:24:52;7.80;;;6.65;;
20084;SDS011;10202;48.474;9.138;2023-06-10T08:27:17;9.15;;;6.93;;
20084;SDS011;10202;48.474;9.138;2023-06-10T08:29:43;9.02;;;6.90;;
20084;SDS011;10202;48.474;9.138;2023-06-10T08:32:10;7.97;;;6.60;;
20084;SDS011;10202;48.474;9.138;2023-06-10T08:34:41;13.60;;;6.60;;
20084;SDS011;10202;48.474;9.138;2023-06-10T08:37:09;6.75;;;5.95;;
20084;SDS011;10202;48.474;9.138;2023-06-10T08:39:34;9.30;;;6.55;;
20084;SDS011;10202;48.474;9.138;2023-06-10T08:45:05;7.47;;;6.53;;
20084;SDS011;10202;48.474;9.138;2023-06-10T08:47:35;8.70;;;6.22;;
20084;SDS011;10202;48.474;9.138;2023-06-10T08:50:07;6.57;;;5.95;;
20084;SDS011;10202;48.474;9.138;2023-06-10T08:52:36;9.70;;;6.63;;
20084;SDS011;10202;48.474;9.138;2023-06-10T08:57:43;7.18;;;6.28;;
20084;SDS011;10202;48.474;9.138;2023-06-10T09:00:13;9.70;;;5.97;;
20084;SDS011;10202;48.474;9.138;2023-06-10T09:02:38;6.82;;;6.13;;
20084;SDS011;10202;48.474;9.138;2023-06-10T09:05:09;8.27;;;6.25;;
20084;SDS011;10202;48.474;9.138;2023-06-10T09:07:35;8.45;;;6.00;;
20084;SDS011;10202;48.474;9.138;2023-06-10T09:10:01;8.98;;;6.35;;
20084;SDS011;10202;48.474;9.138;2023-06-10T09:12:35;8.27;;;5.85;;
20084;SDS011;10202;48.474;9.138;2023-06-10T09:15:06;7.65;;;5.60;;
20084;SDS011;10202;48.474;9.138;2023-06-10T09:17:36;6.28;;;5.60;;
20084;SDS011;10202;48.474;9.138;2023-06-10T09:20:05;9.98;;;6.07;;
20084;SDS011;10202;48.474;9.138;2023-06-10T09:22:37;7.30;;;5.45;;
20084;SDS011;10202;48.474;9.138;2023-06-10T09:25:06;11.30;;;5.78;;
20084;SDS011;10202;48.474;9.138;2023-06-10T09:27:44;6.85;;;5.50;;
20084;SDS011;10202;48.474;9.138;2023-06-10T09:30:28;6.80;;;5.50;;
20084;SDS011;10202;48.474;9.138;2023-06-10T09:32:56;6.13;;;5.50;;
20084;SDS011;10202;48.474;9.138;2023-06-10T09:35:25;8.18;;;5.50;;
20084;SDS011;10202;48.474;9.138;2023-06-10T09:37:58;6.45;;;5.45;;
20084;SDS011;10202;48.474;9.138;2023-06-10T09:40:33;5.88;;;5.28;;
20084;SDS011;10202;48.474;9.138;2023-06-10T09:43:16;8.18;;;4.90;;
20084;SDS011;10202;48.474;9.138;2023-06-10T09:45:42;5.75;;;4.95;;
20084;SDS011;10202;48.474;9.138;2023-06-10T09:48:10;7.45;;;4.95;;
20084;SDS011;10202;48.474;9.138;2023-06-10T09:50:41;4.75;;;4.35;;
20084;SDS011;10202;48.474;9.138;2023-06-10T09:53:09;4.95;;;4.30;;
20084;SDS011;10202;48.474;9.138;2023-06-10T09:55:37;4.63;;;4.10;;
20084;SDS011;10202;48.474;9.138;2023-06-10T09:58:08;4.95;;;4.45;;
20084;SDS011;10202;48.474;9.138;2023-06-10T10:00:34;4.80;;;4.22;;
20084;SDS011;10202;48.474;9.138;2023-06-10T10:03:00;4.05;;;3.63;;
20084;SDS011;10202;48.474;9.138;2023-06-10T10:05:28;4.47;;;3.95;;
20084;SDS011;10202;48.474;9.138;2023-06-10T10:07:55;4.55;;;4.15;;
20084;SDS011;10202;48.474;9.138;2023-06-10T10:10:24;5.35;;;4.18;;
20084;SDS011;10202;48.474;9.138;2023-06-10T10:12:54;7.05;;;3.90;;
20084;SDS011;10202;48.474;9.138;2023-06-10T10:15:25;5.72;;;3.72;;
20084;SDS011;10202;48.474;9.138;2023-06-10T10:17:57;4.50;;;3.90;;
20084;SDS011;10202;48.474;9.138;2023-06-10T10:20:31;4.30;;;3.90;;
20084;SDS011;10202;48.474;9.138;2023-06-10T10:23:00;6.63;;;4.13;;
20084;SDS011;10202;48.474;9.138;2023-06-10T10:25:35;4.10;;;3.75;;
20084;SDS011;10202;48.474;9.138;2023-06-10T10:28:11;7.10;;;4.00;;
20084;SDS011;10202;48.474;9.138;2023-06-10T10:30:39;5.43;;;4.20;;
20084;SDS011;10202;48.474;9.138;2023-06-10T10:33:18;6.13;;;4.10;;
20084;SDS011;10202;48.474;9.138;2023-06-10T10:35:51;4.72;;;4.05;;
20084;SDS011;10202;48.474;9.138;2023-06-10T10:38:19;5.57;;;4.65;;
20084;SDS011;10202;48.474;9.138;2023-06-10T10:40:45;6.55;;;4.20;;
20084;SDS011;10202;48.474;9.138;2023-06-10T10:43:13;7.50;;;4.28;;
20084;SDS011;10202;48.474;9.138;2023-06-10T10:45:46;5.18;;;4.40;;
20084;SDS011;10202;48.474;9.138;2023-06-10T10:48:36;5.78;;;4.53;;
20084;SDS011;10202;48.474;9.138;2023-06-10T10:51:04;6.00;;;4.85;;
20084;SDS011;10202;48.474;9.138;2023-06-10T10:53:38;5.50;;;4.90;;
20084;SDS011;10202;48.474;9.138;2023-06-10T10:56:09;7.72;;;4.70;;
20084;SDS011;10202;48.474;9.138;2023-06-10T10:58:41;5.90;;;4.68;;
20084;SDS011;10202;48.474;9.138;2023-06-10T11:01:10;5.80;;;4.30;;
20084;SDS011;10202;48.474;9.138;2023-06-10T11:03:43;9.02;;;4.57;;
20084;SDS011;10202;48.474;9.138;2023-06-10T11:06:13;8.85;;;4.05;;
20084;SDS011;10202;48.474;9.138;2023-06-10T11:08:45;5.45;;;4.68;;
20084;SDS011;10202;48.474;9.138;2023-06-10T11:16:38;5.95;;;4.68;;
20084;SDS011;10202;48.474;9.138;2023-06-10T11:19:08;5.40;;;4.43;;
20084;SDS011;10202;48.474;9.138;2023-06-10T11:24:27;6.22;;;4.50;;
20084;SDS011;10202;48.474;9.138;2023-06-10T11:27:14;6.38;;;4.57;;
20084;SDS011;10202;48.474;9.138;2023-06-10T11:32:32;7.75;;;4.72;;
20084;SDS011;10202;48.474;9.138;2023-06-10T11:35:00;8.15;;;4.78;;
20084;SDS011;10202;48.474;9.138;2023-06-10T11:37:31;5.10;;;4.60;;
20084;SDS011;10202;48.474;9.138;2023-06-10T11:40:00;6.10;;;4.60;;
20084;SDS011;10202;48.474;9.138;2023-06-10T11:42:25;5.37;;;4.87;;
20084;SDS011;10202;48.474;9.138;2023-06-10T11:44:55;5.20;;;4.68;;
20084;SDS011;10202;48.474;9.138;2023-06-10T11:47:21;5.18;;;4.32;;
20084;SDS011;10202;48.474;9.138;2023-06-10T11:49:55;6.75;;;4.90;;
20084;SDS011;10202;48.474;9.138;2023-06-10T11:52:28;5.93;;;4.47;;
20084;SDS011;10202;48.474;9.138;2023-06-10T11:55:03;4.97;;;4.55;;
20084;SDS011;10202;48.474;9.138;2023-06-10T11:57:34;5.35;;;4.55;;
20084;SDS011;10202;48.474;9.138;2023-06-10T12:00:06;5.10;;;4.60;;
20084;SDS011;10202;48.474;9.138;2023-06-10T12:02:36;5.22;;;4.72;;
20084;SDS011;10202;48.474;9.138;2023-06-10T12:05:11;5.63;;;4.60;;
20084;SDS011;10202;48.474;9.138;2023-06-10T12:07:38;5.60;;;5.00;;
20084;SDS011;10202;48.474;9.138;2023-06-10T12:10:08;5.78;;;5.18;;
20084;SDS011;10202;48.474;9.138;2023-06-10T12:12:36;5.20;;;4.63;;
20084;SDS011;10202;48.474;9.138;2023-06-10T12:15:04;5.30;;;4.80;;
20084;SDS011;10202;48.474;9.138;2023-06-10T12:19:56;7.25;;;5.05;;
20084;SDS011;10202;48.474;9.138;2023-06-10T12:22:22;5.35;;;4.85;;
20084;SDS011;10202;48.474;9.138;2023-06-10T12:25:00;5.30;;;4.80;;
20084;SDS011;10202;48.474;9.138;2023-06-10T12:27:33;5.50;;;4.82;;
20084;SDS011;10202;48.474;9.138;2023-06-10T12:30:03;5.75;;;4.82;;
20084;SDS011;10202;48.474;9.138;2023-06-10T12:32:36;5.35;;;4.85;;
20084;SDS011;10202;48.474;9.138;2023-06-10T12:35:15;8.20;;;5.10;;
20084;SDS011;10202;48.474;9.138;2023-06-10T12:38:00;7.72;;;5.00;;
20084;SDS011;10202;48.474;9.138;2023-06-10T12:40:33;5.00;;;4.50;;
20084;SDS011;10202;48.474;9.138;2023-06-10T12:43:01;6.90;;;5.22;;
20084;SDS011;10202;48.474;9.138;2023-06-10T12:45:33;5.30;;;4.78;;
20084;SDS011;10202;48.474;9.138;2023-06-10T12:50:57;5.40;;;4.25;;
20084;SDS011;10202;48.474;9.138;2023-06-10T12:53:28;5.25;;;4.30;;
20084;SDS011;10202;48.474;9.138;2023-06-10T12:56:01;5.28;;;4.78;;
20084;SDS011;10202;48.474;9.138;2023-06-10T12:58:27;5.00;;;4.47;;
20084;SDS011;10202;48.474;9.138;2023-06-10T13:00:55;6.30;;;5.18;;
20084;SDS011;10202;48.474;9.138;2023-06-10T13:03:26;8.68;;;5.03;;
20084;SDS011;10202;48.474;9.138;2023-06-10T13:05:55;5.28;;;4.72;;
20084;SDS011;10202;48.474;9.138;2023-06-10T13:08:23;7.03;;;4.47;;
20084;SDS011;10202;48.474;9.138;2023-06-10T13:10:50;6.43;;;4.90;;
20084;SDS011;10202;48.474;9.138;2023-06-10T13:13:16;5.45;;;4.30;;
20084;SDS011;10202;48.474;9.138;2023-06-10T13:15:44;7.50;;;4.80;;
20084;SDS011;10202;48.474;9.138;2023-06-10T13:18:10;5.05;;;4.57;;
20084;SDS011;10202;48.474;9.138;2023-06-10T13:20:36;7.30;;;4.47;;
20084;SDS011;10202;48.474;9.138;2023-06-10T13:23:04;4.80;;;4.40;;
20084;SDS011;10202;48.474;9.138;2023-06-10T13:25:29;5.07;;;4.43;;
20084;SDS011;10202;48.474;9.138;2023-06-10T13:27:57;4.93;;;4.38;;
20084;SDS011;10202;48.474;9.138;2023-06-10T13:30:25;5.35;;;4.55;;
20084;SDS011;10202;48.474;9.138;2023-06-10T13:32:51;4.97;;;4.47;;
20084;SDS011;10202;48.474;9.138;2023-06-10T13:35:19;5.75;;;4.30;;
20084;SDS011;10202;48.474;9.138;2023-06-10T13:37:47;5.95;;;4.20;;
20084;SDS011;10202;48.474;9.138;2023-06-10T13:40:13;8.77;;;4.32;;
20084;SDS011;10202;48.474;9.138;2023-06-10T13:42:38;5.30;;;4.38;;
20084;SDS011;10202;48.474;9.138;2023-06-10T13:45:04;4.63;;;4.22;;
20084;SDS011;10202;48.474;9.138;2023-06-10T13:47:31;6.38;;;4.43;;
20084;SDS011;10202;48.474;9.138;2023-06-10T13:49:56;6.03;;;4.22;;
20084;SDS011;10202;48.474;9.138;2023-06-10T13:52:24;4.30;;;3.90;;
20084;SDS011;10202;48.474;9.138;2023-06-10T13:54:55;4.20;;;3.80;;
20084;SDS011;10202;48.474;9.138;2023-06-10T13:57:23;5.53;;;4.45;;
20084;SDS011;10202;48.474;9.138;2023-06-10T13:59:53;4.97;;;4.47;;
20084;SDS011;10202;48.474;9.138;2023-06-10T14:02:21;5.30;;;4.80;;
20084;SDS011;10202;48.474;9.138;2023-06-10T14:04:51;5.32;;;4.82;;
20084;SDS011;10202;48.474;9.138;2023-06-10T14:07:20;5.47;;;4.32;;
20084;SDS011;10202;48.474;9.138;2023-06-10T14:09:48;6.15;;;4.55;;
20084;SDS011;10202;48.474;9.138;2023-06-10T14:12:18;4.63;;;4.22;;
20084;SDS011;10202;48.474;9.138;2023-06-10T14:14:44;4.82;;;4.32;;
20084;SDS011;10202;48.474;9.138;2023-06-10T14:17:12;4.80;;;4.32;;
20084;SDS011;10202;48.474;9.138;2023-06-10T14:19:40;7.18;;;4.55;;
20084;SDS011;10202;48.474;9.138;2023-06-10T14:22:06;5.20;;;4.70;;
20084;SDS011;10202;48.474;9.138;2023-06-10T14:24:34;5.20;;;4.70;;
20084;SDS011;10202;48.474;9.138;2023-06-10T14:27:03;5.82;;;4.65;;
20084;SDS011;10202;48.474;9.138;2023-06-10T14:29:34;4.90;;;4.40;;
20084;SDS011;10202;48.474;9.138;2023-06-10T14:32:02;4.53;;;4.13;;
20084;SDS011;10202;48.474;9.138;2023-06-10T14:34:34;7.10;;;4.50;;
20084;SDS011;10202;48.474;9.138;2023-06-10T14:37:00;4.60;;;4.20;;
20084;SDS011;10202;48.474;9.138;2023-06-10T14:39:30;6.20;;;4.03;;
20084;SDS011;10202;48.474;9.138;2023-06-10T14:41:56;4.40;;;4.00;;
20084;SDS011;10202;48.474;9.138;2023-06-10T14:44:24;4.60;;;3.80;;
20084;SDS011;10202;48.474;9.138;2023-06-10T14:46:49;4.57;;;3.85;;
20084;SDS011;10202;48.474;9.138;2023-06-10T14:49:15;5.25;;;3.95;;
20084;SDS011;10202;48.474;9.138;2023-06-10T14:51:45;4.93;;;3.80;;
20084;SDS011;10202;48.474;9.138;2023-06-10T14:54:18;4.18;;;3.67;;
20084;SDS011;10202;48.474;9.138;2023-06-10T14:56:43;4.20;;;3.80;;
20084;SDS011;10202;48.474;9.138;2023-06-10T14:59:12;7.13;;;4.15;;
20084;SDS011;10202;48.474;9.138;2023-06-10T15:01:39;14.63;;;4.35;;
20084;SDS011;10202;48.474;9.138;2023-06-10T15:04:07;5.88;;;4.47;;
20084;SDS011;10202;48.474;9.138;2023-06-10T15:06:32;4.97;;;4.47;;
20084;SDS011;10202;48.474;9.138;2023-06-10T15:09:00;5.85;;;5.22;;
20084;SDS011;10202;48.474;9.138;2023-06-10T15:11:30;6.95;;;4.68;;
20084;SDS011;10202;48.474;9.138;2023-06-10T15:13:58;7.43;;;5.00;;
20084;SDS011;10202;48.474;9.138;2023-06-10T15:16:26;7.25;;;5.13;;
20084;SDS011;10202;48.474;9.138;2023-06-10T15:18:52;9.55;;;4.95;;
20084;SDS011;10202;48.474;9.138;2023-06-10T15:21:20;9.52;;;4.47;;